Time;durP1;ratioP1;P1;durP2;ratioP2;P2;SDS_P1;SDS_P2;PMS_P1;PMS_P2;Temp;Humidity;BMP_temperature;BMP_pressure;BME280_temperature;BME280_humidity;BME280_pressure;Samples;Min_cycle;Max_cycle;Signal;HPM_P1;HPM_P2
2022/09/19 00:04:02;;;;;;;1.70;0.68;;;;;;;;;;8327220;28;20033;-56
2022/09/19 00:08:02;;;;;;;2.03;0.70;;;;;;;;;;8328899;28;20495;-54
2022/09/19 00:12:02;;;;;;;2.75;0.55;;;;;;;;;;8327219;28;20024;-55
2022/09/19 00:16:02;;;;;;;3.37;0.50;;;;;;;;;;8327283;28;20037;-56
2022/09/19 00:20:04;;;;;;;2.60;0.60;;;;;;;;;;8328166;28;20833;-56
2022/09/19 00:28:27;;;;;;;1.27;0.68;;;;;;;;;;8326177;28;20489;-55
2022/09/19 00:32:27;;;;;;;1.67;0.60;;;;;;;;;;8325765;28;20034;-56
2022/09/19 00:36:28;;;;;;;5.32;0.80;;;;;;;;;;8326557;28;20027;-55
2022/09/19 00:40:28;;;;;;;2.80;0.60;;;;;;;;;;8327383;28;20036;-58
2022/09/19 00:44:28;;;;;;;4.70;0.90;;;;;;;;;;8328160;28;20036;-56
2022/09/19 00:48:30;;;;;;;4.13;0.60;;;;;;;;;;8323327;28;20061;-57
2022/09/19 00:52:37;;;;;;;4.97;1.23;;;;;;;;;;8322947;28;20522;-55
2022/09/19 00:56:40;;;;;;;2.10;0.80;;;;;;;;;;8327738;28;20105;-57
2022/09/19 01:00:40;;;;;;;2.97;0.60;;;;;;;;;;8325799;28;20521;-57
2022/09/19 01:04:43;;;;;;;1.17;0.60;;;;;;;;;;8325412;28;20033;-57
2022/09/19 01:08:54;;;;;;;4.13;0.80;;;;;;;;;;8325378;28;20029;-55
2022/09/19 01:13:09;;;;;;;5.10;0.70;;;;;;;;;;8327014;28;20033;-55
2022/09/19 01:17:19;;;;;;;3.08;0.80;;;;;;;;;;8325696;28;20037;-57
2022/09/19 01:25:57;;;;;;;6.22;0.93;;;;;;;;;;8323476;28;20056;-57
2022/09/19 01:29:57;;;;;;;4.55;1.17;;;;;;;;;;8322638;28;20025;-55
2022/09/19 01:34:02;;;;;;;5.55;0.90;;;;;;;;;;8321429;28;20049;-55
2022/09/19 01:38:07;;;;;;;4.05;0.82;;;;;;;;;;8325194;28;20469;-56
2022/09/19 01:42:10;;;;;;;4.43;0.82;;;;;;;;;;8323592;28;20955;-57
2022/09/19 01:46:38;;;;;;;4.22;1.00;;;;;;;;;;8311476;28;20022;-55
2022/09/19 01:50:45;;;;;;;4.10;0.88;;;;;;;;;;8267072;28;20034;-55
2022/09/19 01:54:45;;;;;;;4.47;0.90;;;;;;;;;;8293881;28;20033;-56
2022/09/19 01:58:48;;;;;;;4.50;1.00;;;;;;;;;;8291690;28;20028;-58
2022/09/19 02:02:54;;;;;;;9.30;1.17;;;;;;;;;;8313562;28;20136;-55
2022/09/19 02:07:01;;;;;;;5.40;1.15;;;;;;;;;;8321387;28;20164;-56
2022/09/19 02:11:06;;;;;;;4.32;1.10;;;;;;;;;;8325029;28;20573;-55
2022/09/19 02:15:09;;;;;;;6.72;1.33;;;;;;;;;;8325203;28;20090;-56
2022/09/19 02:19:14;;;;;;;6.72;1.10;;;;;;;;;;8290137;28;20465;-56
2022/09/19 02:23:17;;;;;;;6.93;1.10;;;;;;;;;;8291072;28;20017;-56
2022/09/19 02:27:20;;;;;;;9.15;1.98;;;;;;;;;;8290810;28;20029;-60
2022/09/19 02:31:26;;;;;;;5.75;1.02;;;;;;;;;;8288538;28;20482;-56
2022/09/19 02:35:34;;;;;;;4.55;1.00;;;;;;;;;;8289746;28;20038;-57
2022/09/19 02:39:46;;;;;;;8.02;1.10;;;;;;;;;;8289708;28;20014;-58
2022/09/19 02:44:00;;;;;;;4.15;0.90;;;;;;;;;;8288878;28;20029;-56
2022/09/19 02:48:09;;;;;;;3.47;1.17;;;;;;;;;;8287659;28;20099;-56
2022/09/19 02:52:19;;;;;;;9.20;1.70;;;;;;;;;;8291368;28;20021;-57
2022/09/19 02:56:21;;;;;;;7.07;1.42;;;;;;;;;;8298231;28;20942;-56
2022/09/19 03:00:21;;;;;;;9.43;1.42;;;;;;;;;;8292655;28;20018;-56
2022/09/19 03:04:25;;;;;;;7.05;1.42;;;;;;;;;;8296044;28;20064;-56
2022/09/19 03:08:36;;;;;;;5.63;1.23;;;;;;;;;;8298535;28;20048;-55
2022/09/19 03:12:55;;;;;;;7.88;1.40;;;;;;;;;;8295557;28;20136;-55
2022/09/19 03:16:56;;;;;;;7.60;1.60;;;;;;;;;;8295349;28;20880;-55
2022/09/19 03:21:01;;;;;;;9.18;1.38;;;;;;;;;;8294859;28;20131;-56
2022/09/19 03:25:02;;;;;;;5.40;1.30;;;;;;;;;;8294154;28;20030;-56
2022/09/19 03:29:03;;;;;;;7.63;1.63;;;;;;;;;;8296867;28;20016;-56
2022/09/19 03:33:04;;;;;;;7.07;1.50;;;;;;;;;;8292595;28;20080;-57
2022/09/19 03:37:04;;;;;;;7.50;1.23;;;;;;;;;;8297326;28;20032;-56
2022/09/19 03:41:04;;;;;;;5.68;1.33;;;;;;;;;;8293923;28;20474;-57
2022/09/19 03:45:05;;;;;;;11.23;1.50;;;;;;;;;;8296545;28;20016;-57
2022/09/19 03:49:05;;;;;;;10.43;1.30;;;;;;;;;;8294314;28;20087;-57
2022/09/19 03:53:09;;;;;;;11.67;1.40;;;;;;;;;;8294316;28;20021;-56
2022/09/19 03:57:10;;;;;;;7.07;1.23;;;;;;;;;;8295305;28;20248;-57
2022/09/19 04:01:15;;;;;;;5.35;1.38;;;;;;;;;;8294393;28;20812;-55
2022/09/19 04:05:16;;;;;;;5.57;1.40;;;;;;;;;;8293496;28;20207;-55
2022/09/19 04:09:16;;;;;;;5.45;1.20;;;;;;;;;;8297313;28;20064;-55
2022/09/19 04:13:16;;;;;;;10.25;1.60;;;;;;;;;;8294685;28;20026;-56
2022/09/19 04:17:16;;;;;;;9.77;1.60;;;;;;;;;;8291668;28;20376;-56
2022/09/19 04:21:17;;;;;;;6.15;1.35;;;;;;;;;;8294313;28;20903;-56
2022/09/19 04:25:17;;;;;;;5.35;1.38;;;;;;;;;;8294900;28;20148;-57
2022/09/19 04:29:19;;;;;;;11.02;1.50;;;;;;;;;;8294903;28;20629;-56
2022/09/19 04:33:20;;;;;;;9.60;1.48;;;;;;;;;;8295121;28;20044;-55
2022/09/19 04:37:20;;;;;;;8.45;1.70;;;;;;;;;;8289543;28;20020;-56
2022/09/19 04:41:20;;;;;;;9.30;1.70;;;;;;;;;;8290962;28;20775;-55
2022/09/19 04:45:21;;;;;;;8.30;1.42;;;;;;;;;;8293679;28;20795;-56
2022/09/19 04:49:21;;;;;;;7.72;1.58;;;;;;;;;;8293979;28;20029;-57
2022/09/19 04:53:23;;;;;;;11.35;1.80;;;;;;;;;;8294180;28;20158;-58
2022/09/19 04:57:26;;;;;;;10.20;1.58;;;;;;;;;;8296036;28;20025;-57
2022/09/19 05:01:27;;;;;;;11.20;2.10;;;;;;;;;;8289644;28;20623;-56
2022/09/19 05:05:27;;;;;;;10.30;2.13;;;;;;;;;;8294874;28;20810;-56
2022/09/19 05:09:28;;;;;;;9.80;2.20;;;;;;;;;;8293091;28;20971;-56
2022/09/19 05:13:29;;;;;;;8.07;1.75;;;;;;;;;;8294042;28;20030;-56
2022/09/19 05:17:30;;;;;;;5.38;1.42;;;;;;;;;;8291259;28;20053;-56
2022/09/19 05:21:30;;;;;;;9.63;1.95;;;;;;;;;;8295565;28;20776;-56
2022/09/19 05:25:34;;;;;;;7.07;2.03;;;;;;;;;;8293426;28;20794;-56
2022/09/19 05:29:36;;;;;;;8.80;1.48;;;;;;;;;;8289548;28;20410;-56
2022/09/19 05:33:36;;;;;;;11.65;1.70;;;;;;;;;;8287093;28;20123;-56
2022/09/19 05:37:44;;;;;;;9.10;1.88;;;;;;;;;;8291145;28;20028;-58
2022/09/19 05:41:44;;;;;;;4.70;1.63;;;;;;;;;;8292040;28;20029;-58
2022/09/19 05:45:45;;;;;;;9.32;1.55;;;;;;;;;;8292438;28;20143;-59
2022/09/19 05:49:45;;;;;;;11.20;1.33;;;;;;;;;;8291706;28;20056;-58
2022/09/19 05:53:55;;;;;;;5.03;1.60;;;;;;;;;;8294317;28;20691;-58
2022/09/19 05:57:56;;;;;;;7.28;1.50;;;;;;;;;;8291796;28;20032;-57
2022/09/19 06:02:01;;;;;;;9.50;1.30;;;;;;;;;;8287313;28;20045;-58
2022/09/19 06:06:01;;;;;;;;;;;;;;;;;;8282245;28;20174;-57
2022/09/19 06:10:01;;;;;;;7.65;1.50;;;;;;;;;;8285618;28;20368;-58
2022/09/19 06:14:18;;;;;;;8.73;1.38;;;;;;;;;;8279070;28;20031;-58
2022/09/19 06:18:18;;;;;;;5.60;1.50;;;;;;;;;;8281985;28;20033;-57
2022/09/19 06:22:18;;;;;;;6.90;1.40;;;;;;;;;;8280653;28;20116;-58
2022/09/19 06:26:19;;;;;;;7.30;1.60;;;;;;;;;;8281380;28;20036;-58
2022/09/19 06:30:19;;;;;;;13.30;2.10;;;;;;;;;;8283803;28;20036;-58
2022/09/19 06:34:21;;;;;;;4.45;1.73;;;;;;;;;;8281594;28;20022;-58
2022/09/19 06:38:21;;;;;;;4.47;1.58;;;;;;;;;;8279979;28;20014;-58
2022/09/19 06:42:21;;;;;;;6.03;1.60;;;;;;;;;;8281531;28;20022;-57
2022/09/19 06:46:21;;;;;;;8.43;2.25;;;;;;;;;;8280549;28;20068;-61
2022/09/19 06:50:21;;;;;;;7.45;2.10;;;;;;;;;;8281090;28;20033;-58
2022/09/19 06:54:22;;;;;;;5.82;1.50;;;;;;;;;;8282091;28;20481;-58
2022/09/19 06:58:24;;;;;;;9.85;2.00;;;;;;;;;;8280053;28;20525;-58
2022/09/19 07:02:24;;;;;;;7.47;2.20;;;;;;;;;;8280118;28;20786;-58
2022/09/19 07:06:25;;;;;;;7.50;1.95;;;;;;;;;;8280702;28;20075;-57
2022/09/19 07:10:26;;;;;;;6.40;1.93;;;;;;;;;;8281813;28;20040;-58
2022/09/19 07:14:26;;;;;;;12.30;1.90;;;;;;;;;;8281838;28;20292;-57
2022/09/19 07:18:27;;;;;;;8.57;1.63;;;;;;;;;;8279361;28;20472;-58
2022/09/19 07:22:27;;;;;;;6.38;2.20;;;;;;;;;;8283148;28;20025;-58
2022/09/19 07:26:27;;;;;;;10.18;2.10;;;;;;;;;;8281527;28;20484;-59
2022/09/19 07:30:28;;;;;;;11.88;2.20;;;;;;;;;;8282498;28;20067;-59
2022/09/19 07:34:28;;;;;;;7.88;1.70;;;;;;;;;;8282556;28;20198;-58
2022/09/19 07:38:28;;;;;;;7.78;1.90;;;;;;;;;;8281775;28;20541;-58
2022/09/19 07:42:28;;;;;;;6.07;1.27;;;;;;;;;;8287962;28;20031;-58
2022/09/19 07:46:29;;;;;;;6.30;1.40;;;;;;;;;;8283981;28;20293;-57
2022/09/19 07:50:29;;;;;;;6.28;1.60;;;;;;;;;;8287258;28;20397;-58
2022/09/19 07:54:30;;;;;;;10.73;1.50;;;;;;;;;;8285285;28;20040;-58
2022/09/19 07:58:30;;;;;;;8.40;1.95;;;;;;;;;;8288418;28;20091;-59
2022/09/19 08:02:30;;;;;;;8.45;1.92;;;;;;;;;;8284066;28;20033;-57
2022/09/19 08:06:30;;;;;;;11.73;1.80;;;;;;;;;;8285960;28;20033;-58
2022/09/19 08:10:31;;;;;;;4.93;1.67;;;;;;;;;;8286919;28;20029;-58
2022/09/19 08:14:31;;;;;;;6.38;1.60;;;;;;;;;;8285357;28;20332;-57
2022/09/19 08:18:31;;;;;;;7.32;1.80;;;;;;;;;;8285562;28;20076;-57
2022/09/19 08:22:32;;;;;;;7.93;1.60;;;;;;;;;;8288310;28;20627;-58
2022/09/19 08:26:32;;;;;;;8.27;1.83;;;;;;;;;;8284988;28;20199;-58
2022/09/19 08:30:33;;;;;;;6.70;1.50;;;;;;;;;;8285121;28;20294;-58
2022/09/19 08:34:34;;;;;;;8.07;1.98;;;;;;;;;;8284836;28;20287;-58
2022/09/19 08:38:34;;;;;;;4.85;1.50;;;;;;;;;;8284199;28;20092;-58
2022/09/19 08:42:41;;;;;;;4.22;1.45;;;;;;;;;;8287234;28;20025;-58
2022/09/19 08:46:49;;;;;;;6.63;1.40;;;;;;;;;;8283580;28;20585;-59
2022/09/19 08:50:53;;;;;;;4.65;1.48;;;;;;;;;;8283093;28;20096;-58
2022/09/19 08:54:54;;;;;;;7.32;1.67;;;;;;;;;;8284502;28;20590;-58
2022/09/19 08:58:58;;;;;;;5.72;1.60;;;;;;;;;;8280891;28;20436;-58
2022/09/19 09:03:04;;;;;;;7.43;2.03;;;;;;;;;;8283637;28;20039;-58
2022/09/19 09:07:04;;;;;;;4.82;1.60;;;;;;;;;;8283574;28;20025;-58
2022/09/19 09:11:05;;;;;;;9.40;1.60;;;;;;;;;;8283472;28;20032;-58
2022/09/19 09:15:12;;;;;;;4.55;1.30;;;;;;;;;;8281367;28;20029;-58
2022/09/19 09:19:23;;;;;;;6.13;1.52;;;;;;;;;;8285533;28;20021;-58
2022/09/19 09:23:26;;;;;;;5.90;1.20;;;;;;;;;;8281186;28;20100;-58
2022/09/19 09:27:30;;;;;;;5.17;1.50;;;;;;;;;;8282502;28;20037;-58
2022/09/19 09:31:36;;;;;;;3.95;1.20;;;;;;;;;;8282764;28;20038;-58
2022/09/19 09:35:47;;;;;;;3.55;1.20;;;;;;;;;;8284010;28;20361;-58
2022/09/19 09:40:08;;;;;;;4.40;1.55;;;;;;;;;;8280636;28;20076;-58
2022/09/19 09:44:13;;;;;;;4.13;1.23;;;;;;;;;;8282501;28;20403;-58
2022/09/19 09:48:32;;;;;;;3.70;1.20;;;;;;;;;;8282445;28;20134;-58
2022/09/19 09:52:36;;;;;;;5.75;1.48;;;;;;;;;;8283519;28;20025;-58
2022/09/19 09:56:48;;;;;;;4.18;1.45;;;;;;;;;;8284186;28;20030;-58
2022/09/19 10:05:25;;;;;;;2.55;1.00;;;;;;;;;;8283445;28;20079;-58
2022/09/19 10:09:29;;;;;;;5.35;1.52;;;;;;;;;;8280885;28;20289;-58
2022/09/19 10:13:31;;;;;;;6.57;1.27;;;;;;;;;;8283880;28;20392;-58
2022/09/19 10:17:37;;;;;;;4.82;1.35;;;;;;;;;;8282840;28;20048;-58
2022/09/19 10:21:38;;;;;;;5.13;1.10;;;;;;;;;;8282218;28;20517;-59
2022/09/19 10:25:38;;;;;;;8.15;1.75;;;;;;;;;;8280082;28;20037;-58
2022/09/19 10:29:53;;;;;;;5.07;1.40;;;;;;;;;;8284437;28;20037;-58
2022/09/19 10:33:53;;;;;;;6.88;1.40;;;;;;;;;;8285217;28;20037;-58
2022/09/19 10:38:15;;;;;;;5.93;1.48;;;;;;;;;;8279886;28;20110;-58
2022/09/19 10:42:20;;;;;;;5.35;1.38;;;;;;;;;;8281238;28;20031;-58
2022/09/19 10:46:21;;;;;;;5.05;1.23;;;;;;;;;;8281109;28;20037;-58
2022/09/19 10:50:22;;;;;;;4.50;1.50;;;;;;;;;;8282389;28;20021;-61
2022/09/19 10:54:31;;;;;;;3.22;1.15;;;;;;;;;;8282899;28;20025;-58
2022/09/19 10:58:39;;;;;;;10.23;1.65;;;;;;;;;;8281132;28;20022;-58
2022/09/19 11:02:39;;;;;;;6.90;1.55;;;;;;;;;;8276218;28;20386;-58
2022/09/19 11:06:59;;;;;;;5.07;1.30;;;;;;;;;;8280761;28;20080;-59
2022/09/19 11:11:03;;;;;;;5.65;1.30;;;;;;;;;;8283511;28;20399;-58
2022/09/19 11:15:04;;;;;;;3.53;1.05;;;;;;;;;;8288030;28;20065;-59
2022/09/19 11:19:06;;;;;;;3.90;1.15;;;;;;;;;;8285084;28;20034;-59
2022/09/19 11:23:13;;;;;;;5.10;1.17;;;;;;;;;;8285168;28;20336;-58
2022/09/19 11:27:13;;;;;;;4.43;1.50;;;;;;;;;;8289296;28;20745;-58
2022/09/19 11:31:14;;;;;;;3.20;1.27;;;;;;;;;;8285232;28;20138;-58
2022/09/19 11:35:25;;;;;;;6.38;1.70;;;;;;;;;;8288065;28;20029;-59
2022/09/19 11:39:36;;;;;;;5.88;1.30;;;;;;;;;;8295430;28;20044;-59
2022/09/19 11:43:42;;;;;;;6.80;1.15;;;;;;;;;;8294609;28;20021;-59
2022/09/19 11:48:01;;;;;;;5.43;1.40;;;;;;;;;;8294915;28;20092;-58
2022/09/19 11:52:06;;;;;;;1.42;0.80;;;;;;;;;;8291185;28;20025;-58
2022/09/19 11:56:06;;;;;;;3.30;1.00;;;;;;;;;;8293441;28;20030;-58
2022/09/19 12:00:12;;;;;;;2.90;0.85;;;;;;;;;;8295707;28;20164;-58
2022/09/19 12:04:12;;;;;;;3.05;1.05;;;;;;;;;;8298056;28;20034;-59
2022/09/19 12:08:13;;;;;;;2.60;0.88;;;;;;;;;;8292375;28;20488;-59
2022/09/19 12:12:15;;;;;;;2.77;1.03;;;;;;;;;;8294872;28;20037;-60
2022/09/19 12:16:24;;;;;;;3.72;0.80;;;;;;;;;;8295294;28;20037;-59
2022/09/19 12:20:33;;;;;;;3.22;1.00;;;;;;;;;;8292696;28;20027;-59
2022/09/19 12:24:53;;;;;;;2.80;1.10;;;;;;;;;;8294008;28;20102;-59
2022/09/19 12:29:15;;;;;;;2.97;0.90;;;;;;;;;;8292285;28;20492;-58
2022/09/19 12:33:17;;;;;;;;;;;;;;;;;;8295159;28;20961;-58
2022/09/19 12:37:23;;;;;;;2.80;0.80;;;;;;;;;;8292753;28;19923;-60
2022/09/19 12:41:42;;;;;;;4.57;0.85;;;;;;;;;;8293591;28;20425;-58
2022/09/19 12:45:53;;;;;;;4.15;1.10;;;;;;;;;;8294599;28;20034;-58
2022/09/19 12:49:57;;;;;;;3.63;1.20;;;;;;;;;;8292145;28;20108;-60
2022/09/19 12:53:57;;;;;;;;;;;;;;;;;;8292750;28;20065;-59
2022/09/19 12:58:01;;;;;;;4.07;1.05;;;;;;;;;;8292896;28;20916;-58
2022/09/19 13:02:12;;;;;;;3.33;0.80;;;;;;;;;;8292034;28;20040;-58
2022/09/19 13:06:25;;;;;;;3.55;0.90;;;;;;;;;;8288762;28;20896;-58
2022/09/19 13:10:25;;;;;;;3.67;1.10;;;;;;;;;;8290329;28;20020;-59
2022/09/19 13:14:30;;;;;;;2.38;1.00;;;;;;;;;;8290771;28;20025;-65
2022/09/19 13:27:12;;;;;;;2.88;1.00;;;;;;;;;;8288094;28;20135;-58
2022/09/19 13:31:15;;;;;;;4.63;0.98;;;;;;;;;;8288198;28;20301;-58
2022/09/19 13:35:16;;;;;;;2.73;1.00;;;;;;;;;;8288050;28;20098;-58
2022/09/19 13:39:38;;;;;;;4.70;1.20;;;;;;;;;;8286167;28;20143;-58
2022/09/19 13:43:59;;;;;;;5.10;1.13;;;;;;;;;;8288006;28;20103;-58
2022/09/19 13:48:06;;;;;;;2.22;1.00;;;;;;;;;;8283039;28;20029;-58
2022/09/19 13:52:08;;;;;;;2.70;1.00;;;;;;;;;;8284353;28;20422;-57
2022/09/19 13:56:28;;;;;;;2.72;0.80;;;;;;;;;;8286247;28;20389;-58
2022/09/19 14:00:40;;;;;;;3.83;1.10;;;;;;;;;;8287163;28;20036;-58
2022/09/19 14:04:58;;;;;;;4.50;1.15;;;;;;;;;;8288782;28;20052;-58
2022/09/19 14:09:32;;;;;;;3.65;1.20;;;;;;;;;;8287108;28;20112;-58
2022/09/19 14:13:35;;;;;;;5.38;1.23;;;;;;;;;;8287835;28;20037;-58
2022/09/19 14:17:36;;;;;;;7.15;1.30;;;;;;;;;;8288025;28;20433;-58
2022/09/19 14:21:36;;;;;;;3.75;1.13;;;;;;;;;;8285634;28;20126;-57
2022/09/19 14:25:36;;;;;;;6.35;1.40;;;;;;;;;;8288270;28;20037;-58
2022/09/19 14:29:41;;;;;;;4.35;1.33;;;;;;;;;;8288644;28;20093;-57
2022/09/19 14:33:41;;;;;;;1.98;1.00;;;;;;;;;;8287065;28;20046;-58
2022/09/19 14:38:13;;;;;;;2.88;1.20;;;;;;;;;;8285381;28;20100;-58
2022/09/19 14:42:31;;;;;;;3.83;1.15;;;;;;;;;;8258458;28;20038;-58
2022/09/19 14:46:35;;;;;;;5.53;1.10;;;;;;;;;;8285455;28;20083;-58
2022/09/19 14:50:38;;;;;;;4.20;1.08;;;;;;;;;;8284604;28;20017;-59
2022/09/19 14:54:39;;;;;;;;;;;;;;;;;;8290191;28;20032;-57
2022/09/19 14:58:39;;;;;;;5.60;1.08;;;;;;;;;;8289384;28;19914;-58
2022/09/19 15:02:40;;;;;;;3.90;1.30;;;;;;;;;;8281861;28;20711;-58
2022/09/19 15:06:47;;;;;;;3.70;1.00;;;;;;;;;;8283790;28;20044;-58
2022/09/19 15:10:57;;;;;;;4.57;1.38;;;;;;;;;;8287788;28;20033;-57
2022/09/19 15:14:58;;;;;;;3.92;1.30;;;;;;;;;;8287612;28;20032;-57
2022/09/19 15:18:58;;;;;;;4.43;1.08;;;;;;;;;;8288029;28;20034;-58
2022/09/19 15:23:01;;;;;;;5.72;1.35;;;;;;;;;;8286708;28;20022;-57
2022/09/19 15:27:01;;;;;;;0.80;0.70;;;;;;;;;;8287180;28;20112;-57
2022/09/19 15:31:01;;;;;;;2.42;0.95;;;;;;;;;;8288767;28;20064;-57
2022/09/19 15:35:08;;;;;;;4.47;1.10;;;;;;;;;;8288313;28;20018;-58
2022/09/19 15:39:10;;;;;;;3.13;1.00;;;;;;;;;;8285363;28;20109;-57
2022/09/19 15:43:11;;;;;;;1.85;0.90;;;;;;;;;;8286396;28;20848;-58
2022/09/19 15:47:16;;;;;;;4.93;1.33;;;;;;;;;;8265159;28;20034;-58
2022/09/19 15:51:25;;;;;;;3.65;1.15;;;;;;;;;;8267352;28;20057;-58
2022/09/19 15:55:33;;;;;;;4.53;1.15;;;;;;;;;;8267460;28;20060;-58
2022/09/19 15:59:37;;;;;;;3.08;0.80;;;;;;;;;;8266409;28;20624;-57
2022/09/19 16:03:38;;;;;;;4.90;1.20;;;;;;;;;;8317075;28;20061;-58
2022/09/19 16:11:59;;;;;;;7.90;1.20;;;;;;;;;;8325077;28;20071;-58
2022/09/19 16:15:59;;;;;;;6.28;1.15;;;;;;;;;;8323479;28;20140;-58
2022/09/19 16:20:00;;;;;;;7.28;1.27;;;;;;;;;;8325277;28;20060;-58
2022/09/19 16:24:00;;;;;;;7.57;1.83;;;;;;;;;;8324285;28;20106;-58
2022/09/19 16:28:01;;;;;;;5.85;1.55;;;;;;;;;;8324326;28;20037;-58
2022/09/19 16:32:02;;;;;;;9.43;1.08;;;;;;;;;;8323723;28;20028;-58
2022/09/19 16:36:07;;;;;;;3.10;0.95;;;;;;;;;;8322681;28;20021;-58
2022/09/19 16:40:07;;;;;;;5.57;1.10;;;;;;;;;;8324261;28;20041;-57
2022/09/19 16:44:31;;;;;;;3.63;1.10;;;;;;;;;;8323853;28;20029;-57
2022/09/19 16:48:31;;;;;;;5.87;1.30;;;;;;;;;;8322641;28;20099;-58
2022/09/19 16:52:33;;;;;;;8.82;1.38;;;;;;;;;;8323716;28;20041;-57
2022/09/19 16:56:33;;;;;;;5.93;1.50;;;;;;;;;;8322328;28;20025;-58
2022/09/19 17:00:34;;;;;;;12.20;1.75;;;;;;;;;;8323173;28;20033;-60
2022/09/19 17:04:34;;;;;;;9.35;1.52;;;;;;;;;;8323817;28;20033;-57
2022/09/19 17:08:34;;;;;;;9.40;2.33;;;;;;;;;;8321113;28;20033;-58
2022/09/19 17:12:34;;;;;;;9.60;1.75;;;;;;;;;;8320672;28;20025;-59
2022/09/19 17:16:35;;;;;;;5.77;1.20;;;;;;;;;;8321949;28;20582;-57
2022/09/19 17:20:36;;;;;;;3.07;1.00;;;;;;;;;;8319539;28;20025;-58
2022/09/19 17:24:36;;;;;;;4.35;0.98;;;;;;;;;;8321432;28;20036;-58
2022/09/19 17:28:38;;;;;;;4.10;1.13;;;;;;;;;;8319771;28;20093;-58
2022/09/19 17:32:46;;;;;;;9.35;1.17;;;;;;;;;;8322184;28;20044;-57
2022/09/19 17:36:46;;;;;;;4.38;1.50;;;;;;;;;;8321668;28;20102;-58
2022/09/19 17:40:47;;;;;;;4.55;1.27;;;;;;;;;;8321472;28;20024;-57
2022/09/19 17:44:49;;;;;;;5.13;1.23;;;;;;;;;;8323956;28;20074;-58
2022/09/19 17:48:50;;;;;;;3.97;0.93;;;;;;;;;;8323472;28;20072;-58
2022/09/19 17:52:51;;;;;;;5.38;0.95;;;;;;;;;;8317393;28;20526;-57
2022/09/19 17:56:52;;;;;;;3.72;0.80;;;;;;;;;;8322265;28;20389;-58
2022/09/19 18:03:16;;;;;;;4.05;1.02;;;;;;;;;;8318085;28;20072;-58
2022/09/19 18:05:22;;;;;;;3.60;0.85;;;;;;;;;;8322080;28;20033;-57
2022/09/19 18:09:22;;;;;;;4.72;1.90;;;;;;;;;;8319319;28;20040;-58
2022/09/19 18:13:22;;;;;;;6.83;2.40;;;;;;;;;;8322725;28;20028;-58
2022/09/19 18:17:23;;;;;;;5.63;3.13;;;;;;;;;;8317987;28;20041;-57
2022/09/19 18:21:23;;;;;;;6.30;2.05;;;;;;;;;;8320233;28;20024;-58
2022/09/19 18:25:27;;;;;;;8.13;2.15;;;;;;;;;;8319725;28;20695;-57
2022/09/19 18:29:30;;;;;;;6.38;1.67;;;;;;;;;;8322684;28;20039;-58
2022/09/19 18:33:31;;;;;;;6.65;2.78;;;;;;;;;;8312719;28;20464;-57
2022/09/19 18:37:34;;;;;;;4.90;1.58;;;;;;;;;;8316009;28;20223;-57
2022/09/19 18:41:35;;;;;;;6.10;1.17;;;;;;;;;;8314729;28;20063;-57
2022/09/19 18:45:35;;;;;;;5.10;1.10;;;;;;;;;;8313100;28;20045;-57
2022/09/19 18:49:35;;;;;;;4.07;1.10;;;;;;;;;;8313447;28;20028;-57
2022/09/19 18:53:36;;;;;;;4.07;1.20;;;;;;;;;;8312581;28;20875;-57
2022/09/19 18:57:36;;;;;;;2.60;1.25;;;;;;;;;;8314106;28;20637;-57
2022/09/19 19:01:36;;;;;;;2.42;1.20;;;;;;;;;;8311912;28;20194;-58
2022/09/19 19:05:37;;;;;;;6.05;1.17;;;;;;;;;;8315852;28;20028;-56
2022/09/19 19:09:37;;;;;;;4.90;1.27;;;;;;;;;;8319641;28;20036;-56
2022/09/19 19:13:39;;;;;;;3.95;1.50;;;;;;;;;;8319980;28;20025;-56
2022/09/19 19:17:39;;;;;;;6.50;1.65;;;;;;;;;;8319008;28;20045;-56
2022/09/19 19:21:40;;;;;;;3.83;1.77;;;;;;;;;;8315636;28;20437;-57
2022/09/19 19:25:41;;;;;;;5.85;1.50;;;;;;;;;;8311824;28;20028;-57
2022/09/19 19:29:41;;;;;;;4.95;1.75;;;;;;;;;;8311317;28;20029;-58
2022/09/19 19:33:42;;;;;;;2.57;1.37;;;;;;;;;;8311857;28;20048;-57
2022/09/19 19:37:42;;;;;;;2.67;1.38;;;;;;;;;;8311801;28;20336;-57
2022/09/19 19:41:42;;;;;;;6.28;1.73;;;;;;;;;;8317217;28;20021;-56
2022/09/19 19:45:45;;;;;;;2.92;1.35;;;;;;;;;;8321825;28;20063;-57
2022/09/19 19:49:45;;;;;;;8.00;1.30;;;;;;;;;;8320454;28;20465;-56
2022/09/19 19:53:46;;;;;;;3.92;1.17;;;;;;;;;;8325021;28;20021;-57
2022/09/19 19:57:46;;;;;;;4.18;1.38;;;;;;;;;;8325361;28;20528;-58
2022/09/19 20:01:47;;;;;;;2.42;1.10;;;;;;;;;;8324141;28;20033;-56
2022/09/19 20:05:48;;;;;;;4.22;0.90;;;;;;;;;;8324344;28;20028;-58
2022/09/19 20:09:48;;;;;;;4.93;1.00;;;;;;;;;;8326104;28;20553;-56
2022/09/19 20:13:52;;;;;;;5.97;1.27;;;;;;;;;;8321436;28;20057;-56
2022/09/19 20:17:52;;;;;;;;;;;;;;;;;;8326088;28;20037;-56
2022/09/19 20:21:52;;;;;;;4.80;1.25;;;;;;;;;;8322427;28;20049;-57
2022/09/19 20:25:52;;;;;;;4.93;1.40;;;;;;;;;;8318267;28;20033;-57
2022/09/19 20:29:53;;;;;;;5.07;2.13;;;;;;;;;;8319847;28;20029;-56
2022/09/19 20:33:53;;;;;;;3.05;1.30;;;;;;;;;;8318816;28;20790;-56
2022/09/19 20:37:54;;;;;;;4.63;1.05;;;;;;;;;;8328105;28;20032;-57
2022/09/19 20:41:55;;;;;;;5.63;1.10;;;;;;;;;;8318874;28;20029;-56
2022/09/19 20:45:56;;;;;;;2.80;1.10;;;;;;;;;;8316174;28;20434;-56
2022/09/19 20:49:56;;;;;;;4.13;0.95;;;;;;;;;;8320474;28;20845;-56
2022/09/19 20:53:56;;;;;;;4.53;1.10;;;;;;;;;;8318090;28;21603;-57
2022/09/19 20:57:56;;;;;;;4.07;1.20;;;;;;;;;;8314447;28;20029;-56
2022/09/19 21:01:57;;;;;;;6.45;1.00;;;;;;;;;;8316452;28;20045;-56
2022/09/19 21:05:57;;;;;;;7.97;1.30;;;;;;;;;;8315128;28;20087;-57
2022/09/19 21:09:57;;;;;;;2.95;0.90;;;;;;;;;;8314515;28;20051;-58
2022/09/19 21:13:58;;;;;;;5.03;0.98;;;;;;;;;;8323961;28;20028;-57
2022/09/19 21:17:58;;;;;;;4.18;1.52;;;;;;;;;;8321404;28;20059;-57
2022/09/19 21:21:58;;;;;;;4.65;1.30;;;;;;;;;;8320031;28;20455;-58
2022/09/19 21:25:59;;;;;;;2.03;1.00;;;;;;;;;;8323059;28;20106;-56
2022/09/19 21:29:59;;;;;;;4.70;1.00;;;;;;;;;;8317887;28;20283;-56
2022/09/19 21:34:00;;;;;;;3.33;0.90;;;;;;;;;;8314185;28;20290;-58
2022/09/19 21:38:00;;;;;;;6.25;1.10;;;;;;;;;;8320131;28;20025;-57
2022/09/19 21:42:01;;;;;;;4.55;1.10;;;;;;;;;;8320003;28;20032;-57
2022/09/19 21:46:06;;;;;;;3.92;1.35;;;;;;;;;;8321961;28;20554;-58
2022/09/19 21:50:06;;;;;;;5.75;1.05;;;;;;;;;;8317150;28;20214;-57
2022/09/19 21:54:07;;;;;;;2.97;0.90;;;;;;;;;;8324275;28;20053;-57
2022/09/19 21:58:07;;;;;;;3.97;1.00;;;;;;;;;;8325171;28;20029;-57
2022/09/19 22:02:07;;;;;;;2.23;0.97;;;;;;;;;;8321130;28;20116;-57
2022/09/19 22:06:07;;;;;;;6.00;0.90;;;;;;;;;;8325674;28;20025;-57
2022/09/19 22:10:08;;;;;;;2.83;1.08;;;;;;;;;;8321802;28;20580;-57
2022/09/19 22:14:08;;;;;;;5.00;1.55;;;;;;;;;;8323555;28;20028;-57
2022/09/19 22:18:08;;;;;;;3.60;0.93;;;;;;;;;;8325167;28;20041;-58
2022/09/19 22:22:08;;;;;;;1.67;0.80;;;;;;;;;;8324500;28;20017;-57
2022/09/19 22:26:10;;;;;;;4.10;1.10;;;;;;;;;;8322880;28;20033;-56
2022/09/19 22:30:10;;;;;;;6.25;1.35;;;;;;;;;;8322227;28;20270;-57
2022/09/19 22:34:11;;;;;;;2.45;1.10;;;;;;;;;;8322766;28;20037;-56
2022/09/19 22:38:12;;;;;;;3.40;1.35;;;;;;;;;;8321886;28;20789;-56
2022/09/19 22:42:12;;;;;;;5.78;1.40;;;;;;;;;;8322201;28;20021;-58
2022/09/19 22:46:14;;;;;;;4.88;1.10;;;;;;;;;;8321897;28;20438;-56
2022/09/19 22:50:14;;;;;;;2.90;1.10;;;;;;;;;;8324975;28;20416;-57
2022/09/19 22:54:15;;;;;;;3.50;1.00;;;;;;;;;;8323991;28;20025;-56
2022/09/19 22:58:15;;;;;;;3.97;1.20;;;;;;;;;;8322859;28;20126;-57
2022/09/19 23:02:15;;;;;;;3.05;0.98;;;;;;;;;;8321583;28;20060;-57
2022/09/19 23:06:17;;;;;;;4.70;1.20;;;;;;;;;;8323668;28;20033;-56
2022/09/19 23:10:17;;;;;;;4.10;0.98;;;;;;;;;;8324926;28;20037;-57
2022/09/19 23:14:22;;;;;;;3.00;1.10;;;;;;;;;;8321371;28;21008;-56
2022/09/19 23:18:22;;;;;;;4.82;1.15;;;;;;;;;;8327741;28;20405;-57
2022/09/19 23:22:23;;;;;;;3.80;1.35;;;;;;;;;;8331281;28;20052;-57
2022/09/19 23:26:24;;;;;;;6.75;1.25;;;;;;;;;;8328884;28;20037;-57
2022/09/19 23:30:24;;;;;;;3.78;1.20;;;;;;;;;;8331107;28;20041;-57
2022/09/19 23:34:24;;;;;;;4.33;1.20;;;;;;;;;;8332103;28;20722;-57
2022/09/19 23:38:24;;;;;;;5.25;1.20;;;;;;;;;;8328198;28;20268;-57
2022/09/19 23:42:25;;;;;;;7.95;1.45;;;;;;;;;;8330309;28;20745;-59
2022/09/19 23:46:26;;;;;;;6.28;1.33;;;;;;;;;;8329555;28;20109;-59
2022/09/19 23:50:26;;;;;;;2.60;1.13;;;;;;;;;;8327517;28;20041;-59
2022/09/19 23:54:27;;;;;;;3.90;1.20;;;;;;;;;;8327796;28;20036;-59
2022/09/19 23:58:27;;;;;;;4.53;1.27;;;;;;;;;;8329790;28;20033;-59
